sensor_id;sensor_type;location;lat;lon;timestamp;temperature;humidity
45685;DHT22;46836;48.388;16.210;2023-01-01T00:00:39;6.30;99.90
45685;DHT22;46836;48.388;16.210;2023-01-01T00:03:07;6.30;99.90
45685;DHT22;46836;48.388;16.210;2023-01-01T00:05:37;6.30;99.90
45685;DHT22;46836;48.388;16.210;2023-01-01T00:08:04;6.40;99.90
45685;DHT22;46836;48.388;16.210;2023-01-01T00:10:32;6.40;99.90
45685;DHT22;46836;48.388;16.210;2023-01-01T00:12:59;6.40;99.90
45685;DHT22;46836;48.388;16.210;2023-01-01T00:15:27;6.40;99.90
45685;DHT22;46836;48.388;16.210;2023-01-01T00:17:54;6.50;99.90
45685;DHT22;46836;48.388;16.210;2023-01-01T00:20:22;6.50;99.90
45685;DHT22;46836;48.388;16.210;2023-01-01T00:22:49;6.50;99.90
45685;DHT22;46836;48.388;16.210;2023-01-01T00:25:22;6.50;99.90
45685;DHT22;46836;48.388;16.210;2023-01-01T00:27:49;6.50;99.90
45685;DHT22;46836;48.388;16.210;2023-01-01T00:30:16;6.50;99.90
45685;DHT22;46836;48.388;16.210;2023-01-01T00:32:43;6.50;99.90
45685;DHT22;46836;48.388;16.210;2023-01-01T00:35:25;6.50;99.90
45685;DHT22;46836;48.388;16.210;2023-01-01T00:37:53;6.50;99.90
45685;DHT22;46836;48.388;16.210;2023-01-01T00:40:21;6.50;99.90
45685;DHT22;46836;48.388;16.210;2023-01-01T00:42:49;6.50;99.90
45685;DHT22;46836;48.388;16.210;2023-01-01T00:45:16;6.50;99.90
45685;DHT22;46836;48.388;16.210;2023-01-01T00:47:49;6.50;99.90
45685;DHT22;46836;48.388;16.210;2023-01-01T00:50:17;6.50;99.90
45685;DHT22;46836;48.388;16.210;2023-01-01T00:52:44;6.50;99.90
45685;DHT22;46836;48.388;16.210;2023-01-01T00:55:12;6.50;99.90
45685;DHT22;46836;48.388;16.210;2023-01-01T00:57:39;6.50;99.90
45685;DHT22;46836;48.388;16.210;2023-01-01T01:00:07;6.50;99.90
45685;DHT22;46836;48.388;16.210;2023-01-01T01:02:35;6.50;99.90
45685;DHT22;46836;48.388;16.210;2023-01-01T01:05:02;6.60;99.90
45685;DHT22;46836;48.388;16.210;2023-01-01T01:07:36;6.60;99.90
45685;DHT22;46836;48.388;16.210;2023-01-01T01:10:04;6.60;99.90
45685;DHT22;46836;48.388;16.210;2023-01-01T01:12:33;6.60;99.90
45685;DHT22;46836;48.388;16.210;2023-01-01T01:15:02;6.60;99.90
45685;DHT22;46836;48.388;16.210;2023-01-01T01:17:29;6.60;99.90
45685;DHT22;46836;48.388;16.210;2023-01-01T01:19:57;6.60;99.90
45685;DHT22;46836;48.388;16.210;2023-01-01T01:22:24;6.60;99.90
45685;DHT22;46836;48.388;16.210;2023-01-01T01:24:55;6.60;99.90
45685;DHT22;46836;48.388;16.210;2023-01-01T01:27:23;6.60;99.90
45685;DHT22;46836;48.388;16.210;2023-01-01T01:29:51;6.60;99.90
45685;DHT22;46836;48.388;16.210;2023-01-01T01:32:18;6.60;99.90
45685;DHT22;46836;48.388;16.210;2023-01-01T01:34:46;6.60;99.90
45685;DHT22;46836;48.388;16.210;2023-01-01T01:37:13;6.60;99.90
45685;DHT22;46836;48.388;16.210;2023-01-01T01:39:40;6.60;99.90
45685;DHT22;46836;48.388;16.210;2023-01-01T01:42:15;6.60;99.90
45685;DHT22;46836;48.388;16.210;2023-01-01T01:45:01;6.50;99.90
45685;DHT22;46836;48.388;16.210;2023-01-01T01:53:03;6.40;99.90
45685;DHT22;46836;48.388;16.210;2023-01-01T01:55:35;6.40;99.90
45685;DHT22;46836;48.388;16.210;2023-01-01T01:58:03;6.40;99.90
45685;DHT22;46836;48.388;16.210;2023-01-01T02:00:31;6.40;99.90
45685;DHT22;46836;48.388;16.210;2023-01-01T02:03:08;6.50;99.90
45685;DHT22;46836;48.388;16.210;2023-01-01T02:05:36;6.50;99.90
45685;DHT22;46836;48.388;16.210;2023-01-01T02:08:05;6.40;99.90
45685;DHT22;46836;48.388;16.210;2023-01-01T02:10:33;6.40;99.90
45685;DHT22;46836;48.388;16.210;2023-01-01T02:13:00;6.30;99.90
45685;DHT22;46836;48.388;16.210;2023-01-01T02:15:31;6.10;99.90
45685;DHT22;46836;48.388;16.210;2023-01-01T02:18:05;5.90;99.90
45685;DHT22;46836;48.388;16.210;2023-01-01T02:21:05;5.60;99.90
45685;DHT22;46836;48.388;16.210;2023-01-01T02:26:58;5.10;99.90
45685;DHT22;46836;48.388;16.210;2023-01-01T02:29:52;4.90;99.90
45685;DHT22;46836;48.388;16.210;2023-01-01T02:32:37;4.70;99.90
45685;DHT22;46836;48.388;16.210;2023-01-01T02:35:14;4.60;99.90
45685;DHT22;46836;48.388;16.210;2023-01-01T02:38:12;4.50;99.90
45685;DHT22;46836;48.388;16.210;2023-01-01T02:40:45;4.50;99.90
45685;DHT22;46836;48.388;16.210;2023-01-01T02:43:13;4.40;99.90
45685;DHT22;46836;48.388;16.210;2023-01-01T02:45:42;4.40;99.90
45685;DHT22;46836;48.388;16.210;2023-01-01T02:48:41;4.30;99.90
45685;DHT22;46836;48.388;16.210;2023-01-01T02:56:53;4.00;99.90
45685;DHT22;46836;48.388;16.210;2023-01-01T02:59:38;4.00;99.90
45685;DHT22;46836;48.388;16.210;2023-01-01T03:02:38;4.00;99.90
45685;DHT22;46836;48.388;16.210;2023-01-01T03:05:17;3.90;99.90
45685;DHT22;46836;48.388;16.210;2023-01-01T03:10:40;3.80;99.90
45685;DHT22;46836;48.388;16.210;2023-01-01T03:24:36;3.50;99.90
45685;DHT22;46836;48.388;16.210;2023-01-01T03:27:21;3.40;99.90
45685;DHT22;46836;48.388;16.210;2023-01-01T03:29:52;3.40;99.90
45685;DHT22;46836;48.388;16.210;2023-01-01T03:32:33;3.50;99.90
45685;DHT22;46836;48.388;16.210;2023-01-01T03:35:23;3.50;99.90
45685;DHT22;46836;48.388;16.210;2023-01-01T03:37:54;3.50;99.90
45685;DHT22;46836;48.388;16.210;2023-01-01T03:40:25;3.50;99.90
45685;DHT22;46836;48.388;16.210;2023-01-01T03:43:01;3.50;99.90
45685;DHT22;46836;48.388;16.210;2023-01-01T03:45:35;3.50;99.90
45685;DHT22;46836;48.388;16.210;2023-01-01T03:48:03;3.60;99.90
45685;DHT22;46836;48.388;16.210;2023-01-01T03:50:52;3.60;99.90
45685;DHT22;46836;48.388;16.210;2023-01-01T03:53:37;3.60;99.90
45685;DHT22;46836;48.388;16.210;2023-01-01T03:59:22;3.70;99.90
45685;DHT22;46836;48.388;16.210;2023-01-01T04:01:48;3.70;99.90
45685;DHT22;46836;48.388;16.210;2023-01-01T04:04:17;3.80;99.90
45685;DHT22;46836;48.388;16.210;2023-01-01T04:06:45;3.80;99.90
45685;DHT22;46836;48.388;16.210;2023-01-01T04:09:16;3.80;99.90
45685;DHT22;46836;48.388;16.210;2023-01-01T04:11:45;3.80;99.90
45685;DHT22;46836;48.388;16.210;2023-01-01T04:14:35;3.90;99.90
45685;DHT22;46836;48.388;16.210;2023-01-01T04:17:04;3.90;99.90
45685;DHT22;46836;48.388;16.210;2023-01-01T04:19:32;3.90;99.90
45685;DHT22;46836;48.388;16.210;2023-01-01T04:22:00;3.90;99.90
45685;DHT22;46836;48.388;16.210;2023-01-01T04:24:28;3.90;99.90
45685;DHT22;46836;48.388;16.210;2023-01-01T04:26:55;3.90;99.90
45685;DHT22;46836;48.388;16.210;2023-01-01T04:29:23;4.00;99.90
45685;DHT22;46836;48.388;16.210;2023-01-01T04:31:50;4.00;99.90
45685;DHT22;46836;48.388;16.210;2023-01-01T04:34:17;4.00;99.90
45685;DHT22;46836;48.388;16.210;2023-01-01T04:36:44;4.00;99.90
45685;DHT22;46836;48.388;16.210;2023-01-01T04:39:11;4.00;99.90
45685;DHT22;46836;48.388;16.210;2023-01-01T04:41:38;4.00;99.90
45685;DHT22;46836;48.388;16.210;2023-01-01T04:44:05;4.10;99.90
45685;DHT22;46836;48.388;16.210;2023-01-01T04:46:32;4.10;99.90
45685;DHT22;46836;48.388;16.210;2023-01-01T04:48:59;4.10;99.90
45685;DHT22;46836;48.388;16.210;2023-01-01T04:51:26;4.00;99.90
45685;DHT22;46836;48.388;16.210;2023-01-01T04:53:53;4.00;99.90
45685;DHT22;46836;48.388;16.210;2023-01-01T04:56:21;4.00;99.90
45685;DHT22;46836;48.388;16.210;2023-01-01T04:58:48;4.00;99.90
45685;DHT22;46836;48.388;16.210;2023-01-01T05:01:23;4.00;99.90
45685;DHT22;46836;48.388;16.210;2023-01-01T05:03:52;4.00;99.90
45685;DHT22;46836;48.388;16.210;2023-01-01T05:06:20;3.90;99.90
45685;DHT22;46836;48.388;16.210;2023-01-01T05:08:49;3.90;99.90
45685;DHT22;46836;48.388;16.210;2023-01-01T05:11:23;3.80;99.90
45685;DHT22;46836;48.388;16.210;2023-01-01T05:13:52;3.80;99.90
45685;DHT22;46836;48.388;16.210;2023-01-01T05:16:28;3.80;99.90
45685;DHT22;46836;48.388;16.210;2023-01-01T05:18:56;3.70;99.90
45685;DHT22;46836;48.388;16.210;2023-01-01T05:21:28;3.70;99.90
45685;DHT22;46836;48.388;16.210;2023-01-01T05:24:04;3.70;99.90
45685;DHT22;46836;48.388;16.210;2023-01-01T05:26:34;3.60;99.90
45685;DHT22;46836;48.388;16.210;2023-01-01T05:29:02;3.60;99.90
45685;DHT22;46836;48.388;16.210;2023-01-01T05:31:32;3.70;99.90
45685;DHT22;46836;48.388;16.210;2023-01-01T05:34:01;3.70;99.90
45685;DHT22;46836;48.388;16.210;2023-01-01T05:36:32;3.80;99.90
45685;DHT22;46836;48.388;16.210;2023-01-01T05:39:00;3.80;99.90
45685;DHT22;46836;48.388;16.210;2023-01-01T05:41:27;3.80;99.90
45685;DHT22;46836;48.388;16.210;2023-01-01T05:43:54;3.80;99.90
45685;DHT22;46836;48.388;16.210;2023-01-01T05:46:23;3.80;99.90
45685;DHT22;46836;48.388;16.210;2023-01-01T05:48:52;3.90;99.90
45685;DHT22;46836;48.388;16.210;2023-01-01T05:51:22;3.90;99.90
45685;DHT22;46836;48.388;16.210;2023-01-01T05:53:51;3.90;99.90
45685;DHT22;46836;48.388;16.210;2023-01-01T05:56:19;3.90;99.90
45685;DHT22;46836;48.388;16.210;2023-01-01T05:58:47;3.90;99.90
45685;DHT22;46836;48.388;16.210;2023-01-01T06:01:16;4.00;99.90
45685;DHT22;46836;48.388;16.210;2023-01-01T06:03:44;3.90;99.90
45685;DHT22;46836;48.388;16.210;2023-01-01T06:06:14;3.90;99.90
45685;DHT22;46836;48.388;16.210;2023-01-01T06:08:42;3.80;99.90
45685;DHT22;46836;48.388;16.210;2023-01-01T06:11:14;3.80;99.90
45685;DHT22;46836;48.388;16.210;2023-01-01T06:13:41;3.80;99.90
45685;DHT22;46836;48.388;16.210;2023-01-01T06:16:08;3.80;99.90
45685;DHT22;46836;48.388;16.210;2023-01-01T06:18:36;3.80;99.90
45685;DHT22;46836;48.388;16.210;2023-01-01T06:21:06;3.80;99.90
45685;DHT22;46836;48.388;16.210;2023-01-01T06:23:35;3.90;99.90
45685;DHT22;46836;48.388;16.210;2023-01-01T06:26:11;4.00;99.90
45685;DHT22;46836;48.388;16.210;2023-01-01T06:28:38;4.00;99.90
45685;DHT22;46836;48.388;16.210;2023-01-01T06:31:08;4.00;99.90
45685;DHT22;46836;48.388;16.210;2023-01-01T06:33:36;4.00;99.90
45685;DHT22;46836;48.388;16.210;2023-01-01T06:36:06;4.00;99.90
45685;DHT22;46836;48.388;16.210;2023-01-01T06:38:35;4.00;99.90
45685;DHT22;46836;48.388;16.210;2023-01-01T06:41:06;4.00;99.90
45685;DHT22;46836;48.388;16.210;2023-01-01T06:43:34;4.00;99.90
45685;DHT22;46836;48.388;16.210;2023-01-01T06:48:40;4.00;99.90
45685;DHT22;46836;48.388;16.210;2023-01-01T06:51:12;4.00;99.90
45685;DHT22;46836;48.388;16.210;2023-01-01T06:53:40;4.00;99.90
45685;DHT22;46836;48.388;16.210;2023-01-01T06:56:08;4.00;99.90
45685;DHT22;46836;48.388;16.210;2023-01-01T06:58:35;4.10;99.90
45685;DHT22;46836;48.388;16.210;2023-01-01T07:01:09;4.10;99.90
45685;DHT22;46836;48.388;16.210;2023-01-01T07:03:37;4.10;99.90
45685;DHT22;46836;48.388;16.210;2023-01-01T07:06:05;4.10;99.90
45685;DHT22;46836;48.388;16.210;2023-01-01T07:08:34;4.10;99.90
45685;DHT22;46836;48.388;16.210;2023-01-01T07:11:01;4.20;99.90
45685;DHT22;46836;48.388;16.210;2023-01-01T07:13:29;4.10;99.90
45685;DHT22;46836;48.388;16.210;2023-01-01T07:15:57;4.10;99.90
45685;DHT22;46836;48.388;16.210;2023-01-01T07:18:24;4.10;99.90
45685;DHT22;46836;48.388;16.210;2023-01-01T07:20:54;4.00;99.90
45685;DHT22;46836;48.388;16.210;2023-01-01T07:23:22;4.10;99.90
45685;DHT22;46836;48.388;16.210;2023-01-01T07:25:50;4.00;99.90
45685;DHT22;46836;48.388;16.210;2023-01-01T07:28:19;4.00;99.90
45685;DHT22;46836;48.388;16.210;2023-01-01T07:30:46;4.00;99.90
45685;DHT22;46836;48.388;16.210;2023-01-01T07:33:16;4.00;99.90
45685;DHT22;46836;48.388;16.210;2023-01-01T07:35:44;4.00;99.90
45685;DHT22;46836;48.388;16.210;2023-01-01T07:38:12;3.90;99.90
45685;DHT22;46836;48.388;16.210;2023-01-01T07:40:40;3.90;99.90
45685;DHT22;46836;48.388;16.210;2023-01-01T07:43:07;3.80;99.90
45685;DHT22;46836;48.388;16.210;2023-01-01T07:45:35;3.80;99.90
45685;DHT22;46836;48.388;16.210;2023-01-01T07:48:02;3.90;99.90
45685;DHT22;46836;48.388;16.210;2023-01-01T07:50:32;3.90;99.90
45685;DHT22;46836;48.388;16.210;2023-01-01T07:52:59;3.90;99.90
45685;DHT22;46836;48.388;16.210;2023-01-01T07:55:26;4.00;99.90
45685;DHT22;46836;48.388;16.210;2023-01-01T07:57:53;4.00;99.90
45685;DHT22;46836;48.388;16.210;2023-01-01T08:00:21;4.00;99.90
45685;DHT22;46836;48.388;16.210;2023-01-01T08:02:48;3.90;99.90
45685;DHT22;46836;48.388;16.210;2023-01-01T08:05:16;4.00;99.90
45685;DHT22;46836;48.388;16.210;2023-01-01T08:07:52;4.00;99.90
45685;DHT22;46836;48.388;16.210;2023-01-01T08:10:19;3.90;99.90
45685;DHT22;46836;48.388;16.210;2023-01-01T08:12:46;4.00;99.90
45685;DHT22;46836;48.388;16.210;2023-01-01T08:15:14;4.00;99.90
45685;DHT22;46836;48.388;16.210;2023-01-01T08:17:42;4.00;99.90
45685;DHT22;46836;48.388;16.210;2023-01-01T08:20:13;4.00;99.90
45685;DHT22;46836;48.388;16.210;2023-01-01T08:22:40;4.00;99.90
45685;DHT22;46836;48.388;16.210;2023-01-01T08:25:07;4.10;99.90
45685;DHT22;46836;48.388;16.210;2023-01-01T08:27:34;4.20;99.90
45685;DHT22;46836;48.388;16.210;2023-01-01T08:30:01;4.20;99.90
45685;DHT22;46836;48.388;16.210;2023-01-01T08:32:29;4.30;99.90
45685;DHT22;46836;48.388;16.210;2023-01-01T08:34:56;4.40;99.90
45685;DHT22;46836;48.388;16.210;2023-01-01T08:37:23;4.50;99.90
45685;DHT22;46836;48.388;16.210;2023-01-01T08:39:52;4.50;99.90
45685;DHT22;46836;48.388;16.210;2023-01-01T08:42:19;4.60;99.90
45685;DHT22;46836;48.388;16.210;2023-01-01T08:44:46;4.70;99.90
45685;DHT22;46836;48.388;16.210;2023-01-01T08:47:24;4.80;99.90
45685;DHT22;46836;48.388;16.210;2023-01-01T08:49:52;4.80;99.90
45685;DHT22;46836;48.388;16.210;2023-01-01T08:52:22;4.90;99.90
45685;DHT22;46836;48.388;16.210;2023-01-01T08:54:49;5.00;99.90
45685;DHT22;46836;48.388;16.210;2023-01-01T08:57:16;5.00;99.90
45685;DHT22;46836;48.388;16.210;2023-01-01T08:59:43;5.10;99.90
45685;DHT22;46836;48.388;16.210;2023-01-01T09:02:11;5.20;99.90
45685;DHT22;46836;48.388;16.210;2023-01-01T09:04:38;5.30;99.90
45685;DHT22;46836;48.388;16.210;2023-01-01T09:07:06;5.30;99.90
45685;DHT22;46836;48.388;16.210;2023-01-01T09:09:33;5.30;99.90
45685;DHT22;46836;48.388;16.210;2023-01-01T09:12:01;5.40;99.90
45685;DHT22;46836;48.388;16.210;2023-01-01T09:14:33;5.40;99.90
45685;DHT22;46836;48.388;16.210;2023-01-01T09:17:00;5.50;99.90
45685;DHT22;46836;48.388;16.210;2023-01-01T09:19:28;5.50;99.90
45685;DHT22;46836;48.388;16.210;2023-01-01T09:21:55;5.60;99.90
45685;DHT22;46836;48.388;16.210;2023-01-01T09:24:23;5.50;99.90
45685;DHT22;46836;48.388;16.210;2023-01-01T09:26:50;5.50;99.90
45685;DHT22;46836;48.388;16.210;2023-01-01T09:29:18;5.60;99.90
45685;DHT22;46836;48.388;16.210;2023-01-01T09:31:48;5.60;99.90
45685;DHT22;46836;48.388;16.210;2023-01-01T09:34:16;5.80;99.90
45685;DHT22;46836;48.388;16.210;2023-01-01T09:36:44;5.80;99.90
45685;DHT22;46836;48.388;16.210;2023-01-01T09:39:13;5.90;99.90
45685;DHT22;46836;48.388;16.210;2023-01-01T09:47:02;6.20;99.90
45685;DHT22;46836;48.388;16.210;2023-01-01T09:49:48;6.30;99.90
45685;DHT22;46836;48.388;16.210;2023-01-01T09:52:17;6.30;99.90
45685;DHT22;46836;48.388;16.210;2023-01-01T09:54:52;6.50;99.90
45685;DHT22;46836;48.388;16.210;2023-01-01T09:57:27;6.60;99.90
45685;DHT22;46836;48.388;16.210;2023-01-01T09:59:56;6.70;99.90
45685;DHT22;46836;48.388;16.210;2023-01-01T10:02:43;6.70;99.90
45685;DHT22;46836;48.388;16.210;2023-01-01T10:14:22;6.70;99.90
45685;DHT22;46836;48.388;16.210;2023-01-01T10:16:55;6.60;99.90
45685;DHT22;46836;48.388;16.210;2023-01-01T10:19:47;6.60;99.90
45685;DHT22;46836;48.388;16.210;2023-01-01T10:22:21;6.50;99.90
45685;DHT22;46836;48.388;16.210;2023-01-01T10:27:58;6.40;99.90
45685;DHT22;46836;48.388;16.210;2023-01-01T10:30:27;6.40;99.90
45685;DHT22;46836;48.388;16.210;2023-01-01T10:32:56;6.40;99.90
45685;DHT22;46836;48.388;16.210;2023-01-01T10:35:39;6.30;99.90
45685;DHT22;46836;48.388;16.210;2023-01-01T10:38:17;6.30;99.90
45685;DHT22;46836;48.388;16.210;2023-01-01T10:40:47;6.40;99.90
45685;DHT22;46836;48.388;16.210;2023-01-01T10:43:15;6.30;99.90
45685;DHT22;46836;48.388;16.210;2023-01-01T10:45:52;6.30;99.90
45685;DHT22;46836;48.388;16.210;2023-01-01T10:48:28;6.30;99.90
45685;DHT22;46836;48.388;16.210;2023-01-01T10:51:05;6.40;99.90
45685;DHT22;46836;48.388;16.210;2023-01-01T10:53:37;6.30;99.90
45685;DHT22;46836;48.388;16.210;2023-01-01T10:58:51;6.30;99.90
45685;DHT22;46836;48.388;16.210;2023-01-01T11:01:31;6.30;99.90
45685;DHT22;46836;48.388;16.210;2023-01-01T11:04:00;6.30;99.90
45685;DHT22;46836;48.388;16.210;2023-01-01T11:09:00;6.50;99.90
45685;DHT22;46836;48.388;16.210;2023-01-01T11:11:41;6.60;99.90
45685;DHT22;46836;48.388;16.210;2023-01-01T11:14:28;6.70;99.90
45685;DHT22;46836;48.388;16.210;2023-01-01T11:16:56;6.80;99.90
45685;DHT22;46836;48.388;16.210;2023-01-01T11:19:36;6.90;99.90
45685;DHT22;46836;48.388;16.210;2023-01-01T11:22:06;6.90;99.90
45685;DHT22;46836;48.388;16.210;2023-01-01T11:24:39;7.00;99.90
45685;DHT22;46836;48.388;16.210;2023-01-01T11:27:20;7.00;99.90
45685;DHT22;46836;48.388;16.210;2023-01-01T11:29:48;7.10;99.90
45685;DHT22;46836;48.388;16.210;2023-01-01T11:32:30;7.20;99.90
45685;DHT22;46836;48.388;16.210;2023-01-01T11:35:01;7.20;99.90
45685;DHT22;46836;48.388;16.210;2023-01-01T11:37:31;7.20;99.90
45685;DHT22;46836;48.388;16.210;2023-01-01T11:40:01;7.20;99.90
45685;DHT22;46836;48.388;16.210;2023-01-01T11:42:34;7.20;99.90
45685;DHT22;46836;48.388;16.210;2023-01-01T11:45:13;7.30;99.90
45685;DHT22;46836;48.388;16.210;2023-01-01T11:47:43;7.30;99.90
45685;DHT22;46836;48.388;16.210;2023-01-01T11:52:48;7.40;99.90
45685;DHT22;46836;48.388;16.210;2023-01-01T12:00:18;7.60;99.90
45685;DHT22;46836;48.388;16.210;2023-01-01T12:08:49;7.80;99.90
45685;DHT22;46836;48.388;16.210;2023-01-01T12:11:37;7.80;99.90
45685;DHT22;46836;48.388;16.210;2023-01-01T12:17:36;7.80;99.90
45685;DHT22;46836;48.388;16.210;2023-01-01T12:22:38;7.70;99.90
45685;DHT22;46836;48.388;16.210;2023-01-01T12:25:11;7.80;99.90
45685;DHT22;46836;48.388;16.210;2023-01-01T12:30:18;7.90;99.90
45685;DHT22;46836;48.388;16.210;2023-01-01T12:38:53;7.80;99.90
45685;DHT22;46836;48.388;16.210;2023-01-01T12:42:03;7.80;99.90
45685;DHT22;46836;48.388;16.210;2023-01-01T12:44:47;7.80;99.90
45685;DHT22;46836;48.388;16.210;2023-01-01T12:50:31;7.80;99.90
45685;DHT22;46836;48.388;16.210;2023-01-01T12:56:13;7.70;99.90
45685;DHT22;46836;48.388;16.210;2023-01-01T12:58:58;7.70;99.90
45685;DHT22;46836;48.388;16.210;2023-01-01T13:01:29;7.70;99.90
45685;DHT22;46836;48.388;16.210;2023-01-01T13:04:20;7.60;99.90
45685;DHT22;46836;48.388;16.210;2023-01-01T13:09:33;7.60;99.90
45685;DHT22;46836;48.388;16.210;2023-01-01T13:12:05;7.70;99.90
45685;DHT22;46836;48.388;16.210;2023-01-01T13:14:42;7.60;99.90
45685;DHT22;46836;48.388;16.210;2023-01-01T13:22:37;7.60;99.90
45685;DHT22;46836;48.388;16.210;2023-01-01T13:25:21;7.50;99.90
45685;DHT22;46836;48.388;16.210;2023-01-01T13:30:49;7.50;99.90
45685;DHT22;46836;48.388;16.210;2023-01-01T13:38:55;7.40;99.90
45685;DHT22;46836;48.388;16.210;2023-01-01T13:46:46;7.40;99.90
45685;DHT22;46836;48.388;16.210;2023-01-01T13:58:16;7.30;99.90
45685;DHT22;46836;48.388;16.210;2023-01-01T14:03:47;7.20;99.90
45685;DHT22;46836;48.388;16.210;2023-01-01T14:09:05;6.90;99.90
45685;DHT22;46836;48.388;16.210;2023-01-01T14:11:33;6.90;99.90
45685;DHT22;46836;48.388;16.210;2023-01-01T14:14:00;6.80;99.90
45685;DHT22;46836;48.388;16.210;2023-01-01T14:16:28;6.70;99.90
45685;DHT22;46836;48.388;16.210;2023-01-01T14:18:57;6.70;99.90
45685;DHT22;46836;48.388;16.210;2023-01-01T14:21:29;6.70;99.90
45685;DHT22;46836;48.388;16.210;2023-01-01T14:24:03;6.70;99.90
45685;DHT22;46836;48.388;16.210;2023-01-01T14:26:32;6.70;99.90
45685;DHT22;46836;48.388;16.210;2023-01-01T14:29:07;6.70;99.90
45685;DHT22;46836;48.388;16.210;2023-01-01T14:31:39;6.70;99.90
45685;DHT22;46836;48.388;16.210;2023-01-01T14:34:31;6.60;99.90
45685;DHT22;46836;48.388;16.210;2023-01-01T14:37:01;6.60;99.90
45685;DHT22;46836;48.388;16.210;2023-01-01T14:39:34;6.60;99.90
45685;DHT22;46836;48.388;16.210;2023-01-01T14:42:13;6.50;99.90
45685;DHT22;46836;48.388;16.210;2023-01-01T14:44:43;6.40;99.90
45685;DHT22;46836;48.388;16.210;2023-01-01T14:47:24;6.40;99.90
45685;DHT22;46836;48.388;16.210;2023-01-01T14:49:52;6.30;99.90
45685;DHT22;46836;48.388;16.210;2023-01-01T14:52:24;6.30;99.90
45685;DHT22;46836;48.388;16.210;2023-01-01T14:54:56;6.30;99.90
45685;DHT22;46836;48.388;16.210;2023-01-01T14:57:34;6.30;99.90
45685;DHT22;46836;48.388;16.210;2023-01-01T15:00:23;6.30;99.90
45685;DHT22;46836;48.388;16.210;2023-01-01T15:02:50;6.30;99.90
45685;DHT22;46836;48.388;16.210;2023-01-01T15:05:33;6.20;99.90
45685;DHT22;46836;48.388;16.210;2023-01-01T15:08:04;6.20;99.90
45685;DHT22;46836;48.388;16.210;2023-01-01T15:10:35;6.20;99.90
45685;DHT22;46836;48.388;16.210;2023-01-01T15:13:06;6.10;99.90
45685;DHT22;46836;48.388;16.210;2023-01-01T15:15:34;6.10;99.90
45685;DHT22;46836;48.388;16.210;2023-01-01T15:18:02;6.10;99.90
45685;DHT22;46836;48.388;16.210;2023-01-01T15:20:29;6.00;99.90
45685;DHT22;46836;48.388;16.210;2023-01-01T15:22:58;5.90;99.90
45685;DHT22;46836;48.388;16.210;2023-01-01T15:25:33;5.80;99.90
45685;DHT22;46836;48.388;16.210;2023-01-01T15:28:04;5.80;99.90
45685;DHT22;46836;48.388;16.210;2023-01-01T15:30:32;5.70;99.90
45685;DHT22;46836;48.388;16.210;2023-01-01T15:33:08;5.60;99.90
45685;DHT22;46836;48.388;16.210;2023-01-01T15:35:36;5.60;99.90
45685;DHT22;46836;48.388;16.210;2023-01-01T15:38:20;5.50;99.90
45685;DHT22;46836;48.388;16.210;2023-01-01T15:40:49;5.50;99.90
45685;DHT22;46836;48.388;16.210;2023-01-01T15:43:24;5.40;99.90
45685;DHT22;46836;48.388;16.210;2023-01-01T15:46:21;5.40;99.90
45685;DHT22;46836;48.388;16.210;2023-01-01T15:48:58;5.30;99.90
45685;DHT22;46836;48.388;16.210;2023-01-01T15:51:27;5.20;99.90
45685;DHT22;46836;48.388;16.210;2023-01-01T15:54:00;5.20;99.90
45685;DHT22;46836;48.388;16.210;2023-01-01T15:56:32;5.10;99.90
45685;DHT22;46836;48.388;16.210;2023-01-01T16:01:43;5.10;99.90
45685;DHT22;46836;48.388;16.210;2023-01-01T16:04:22;5.00;99.90
45685;DHT22;46836;48.388;16.210;2023-01-01T16:06:56;5.00;99.90
45685;DHT22;46836;48.388;16.210;2023-01-01T16:09:23;5.00;99.90
45685;DHT22;46836;48.388;16.210;2023-01-01T16:11:52;4.90;99.90
45685;DHT22;46836;48.388;16.210;2023-01-01T16:14:20;4.90;99.90
45685;DHT22;46836;48.388;16.210;2023-01-01T16:16:52;4.90;99.90
45685;DHT22;46836;48.388;16.210;2023-01-01T16:19:23;4.90;99.90
45685;DHT22;46836;48.388;16.210;2023-01-01T16:21:51;4.90;99.90
45685;DHT22;46836;48.388;16.210;2023-01-01T16:24:19;5.00;99.90
45685;DHT22;46836;48.388;16.210;2023-01-01T16:26:46;5.00;99.90
45685;DHT22;46836;48.388;16.210;2023-01-01T16:29:14;5.10;99.90
45685;DHT22;46836;48.388;16.210;2023-01-01T16:31:42;5.20;99.90
45685;DHT22;46836;48.388;16.210;2023-01-01T16:34:12;5.30;99.90
45685;DHT22;46836;48.388;16.210;2023-01-01T16:36:44;5.40;99.90
45685;DHT22;46836;48.388;16.210;2023-01-01T16:39:11;5.50;99.90
45685;DHT22;46836;48.388;16.210;2023-01-01T16:41:42;5.60;99.90
45685;DHT22;46836;48.388;16.210;2023-01-01T16:44:13;5.80;99.90
45685;DHT22;46836;48.388;16.210;2023-01-01T16:46:41;5.80;99.90
45685;DHT22;46836;48.388;16.210;2023-01-01T16:49:08;5.90;99.90
45685;DHT22;46836;48.388;16.210;2023-01-01T16:51:35;6.00;99.90
45685;DHT22;46836;48.388;16.210;2023-01-01T16:54:09;6.00;99.90
45685;DHT22;46836;48.388;16.210;2023-01-01T16:56:36;6.00;99.90
45685;DHT22;46836;48.388;16.210;2023-01-01T16:59:05;6.00;99.90
45685;DHT22;46836;48.388;16.210;2023-01-01T17:01:32;6.00;99.90
45685;DHT22;46836;48.388;16.210;2023-01-01T17:03:59;6.00;99.90
45685;DHT22;46836;48.388;16.210;2023-01-01T17:06:27;6.00;99.90
45685;DHT22;46836;48.388;16.210;2023-01-01T17:08:54;6.10;99.90
45685;DHT22;46836;48.388;16.210;2023-01-01T17:11:21;6.00;99.90
45685;DHT22;46836;48.388;16.210;2023-01-01T17:13:50;6.00;99.90
45685;DHT22;46836;48.388;16.210;2023-01-01T17:16:18;5.90;99.90
45685;DHT22;46836;48.388;16.210;2023-01-01T17:18:57;5.80;99.90
45685;DHT22;46836;48.388;16.210;2023-01-01T17:21:44;5.70;99.90
45685;DHT22;46836;48.388;16.210;2023-01-01T17:24:16;5.60;99.90
45685;DHT22;46836;48.388;16.210;2023-01-01T17:26:44;5.60;99.90
45685;DHT22;46836;48.388;16.210;2023-01-01T17:29:11;5.50;99.90
45685;DHT22;46836;48.388;16.210;2023-01-01T17:31:38;5.40;99.90
45685;DHT22;46836;48.388;16.210;2023-01-01T17:34:06;5.40;99.90
45685;DHT22;46836;48.388;16.210;2023-01-01T17:36:41;5.30;99.90
45685;DHT22;46836;48.388;16.210;2023-01-01T17:39:13;5.20;99.90
45685;DHT22;46836;48.388;16.210;2023-01-01T17:41:42;5.10;99.90
45685;DHT22;46836;48.388;16.210;2023-01-01T17:44:09;5.00;99.90
45685;DHT22;46836;48.388;16.210;2023-01-01T17:46:37;4.90;99.90
45685;DHT22;46836;48.388;16.210;2023-01-01T17:49:05;4.80;99.90
45685;DHT22;46836;48.388;16.210;2023-01-01T17:51:35;4.80;99.90
45685;DHT22;46836;48.388;16.210;2023-01-01T17:54:02;4.70;99.90
45685;DHT22;46836;48.388;16.210;2023-01-01T17:56:32;4.70;99.90
45685;DHT22;46836;48.388;16.210;2023-01-01T17:58:59;4.60;99.90
45685;DHT22;46836;48.388;16.210;2023-01-01T18:01:29;4.60;99.90
45685;DHT22;46836;48.388;16.210;2023-01-01T18:04:06;4.50;99.90
45685;DHT22;46836;48.388;16.210;2023-01-01T18:06:35;4.50;99.90